sensor_id;sensor_type;location;lat;lon;timestamp;pressure;altitude;pressure_sealevel;temperature;humidity
31717;BME280;18301;51.076;17.046;2023-07-31T00:00:14;99810.72;;;18.53;91.12
31717;BME280;18301;51.076;17.046;2023-07-31T00:05:16;99822.00;;;18.50;91.48
31717;BME280;18301;51.076;17.046;2023-07-31T00:10:17;99817.31;;;18.67;89.85
31717;BME280;18301;51.076;17.046;2023-07-31T00:15:19;99818.03;;;18.61;89.96
31717;BME280;18301;51.076;17.046;2023-07-31T00:20:21;99821.63;;;18.61;89.28
31717;BME280;18301;51.076;17.046;2023-07-31T00:25:22;99818.63;;;18.48;89.50
31717;BME280;18301;51.076;17.046;2023-07-31T00:30:24;99819.78;;;18.54;89.08
31717;BME280;18301;51.076;17.046;2023-07-31T00:35:26;99823.66;;;18.59;88.56
31717;BME280;18301;51.076;17.046;2023-07-31T00:40:28;99823.72;;;18.51;88.75
31717;BME280;18301;51.076;17.046;2023-07-31T00:45:29;99821.81;;;18.60;87.42
31717;BME280;18301;51.076;17.046;2023-07-31T00:50:32;99812.81;;;18.51;86.99
31717;BME280;18301;51.076;17.046;2023-07-31T00:55:34;99819.59;;;18.55;86.42
31717;BME280;18301;51.076;17.046;2023-07-31T01:00:36;99817.22;;;18.52;85.97
31717;BME280;18301;51.076;17.046;2023-07-31T01:06:02;99813.88;;;18.42;85.43
31717;BME280;18301;51.076;17.046;2023-07-31T01:11:17;99822.00;;;18.50;85.04
31717;BME280;18301;51.076;17.046;2023-07-31T01:16:20;99815.56;;;18.43;84.78
31717;BME280;18301;51.076;17.046;2023-07-31T01:21:44;99819.97;;;18.52;83.72
31717;BME280;18301;51.076;17.046;2023-07-31T01:27:04;99818.63;;;18.48;83.14
31717;BME280;18301;51.076;17.046;2023-07-31T01:32:07;99816.91;;;18.47;83.19
31717;BME280;18301;51.076;17.046;2023-07-31T01:37:10;99821.34;;;18.48;83.23
31717;BME280;18301;51.076;17.046;2023-07-31T01:42:12;99823.31;;;18.31;83.29
31717;BME280;18301;51.076;17.046;2023-07-31T01:47:13;99819.38;;;18.34;83.47
31717;BME280;18301;51.076;17.046;2023-07-31T01:52:15;99816.91;;;18.47;83.23
31717;BME280;18301;51.076;17.046;2023-07-31T01:57:16;99828.16;;;18.52;82.66
31717;BME280;18301;51.076;17.046;2023-07-31T02:02:18;99841.69;;;18.46;83.22
31717;BME280;18301;51.076;17.046;2023-07-31T02:07:19;99821.03;;;18.43;83.48
31717;BME280;18301;51.076;17.046;2023-07-31T02:12:21;99821.53;;;18.47;83.43
31717;BME280;18301;51.076;17.046;2023-07-31T02:17:22;99820.13;;;18.20;83.99
31717;BME280;18301;51.076;17.046;2023-07-31T02:22:24;99819.00;;;18.37;82.81
31717;BME280;18301;51.076;17.046;2023-07-31T02:27:25;99814.13;;;18.24;83.45
31717;BME280;18301;51.076;17.046;2023-07-31T02:32:28;99809.25;;;18.43;82.88
31717;BME280;18301;51.076;17.046;2023-07-31T02:37:30;99819.34;;;18.42;82.11
31717;BME280;18301;51.076;17.046;2023-07-31T02:42:31;99812.03;;;18.34;82.67
31717;BME280;18301;51.076;17.046;2023-07-31T02:47:33;99822.09;;;18.34;82.78
31717;BME280;18301;51.076;17.046;2023-07-31T02:52:35;99816.41;;;18.44;82.06
31717;BME280;18301;51.076;17.046;2023-07-31T02:57:36;99824.13;;;18.40;81.05
31717;BME280;18301;51.076;17.046;2023-07-31T03:02:39;99822.44;;;18.31;81.47
31717;BME280;18301;51.076;17.046;2023-07-31T03:07:41;99824.88;;;18.26;81.75
31717;BME280;18301;51.076;17.046;2023-07-31T03:12:46;99831.41;;;18.16;82.51
31717;BME280;18301;51.076;17.046;2023-07-31T03:17:48;99834.84;;;18.02;81.72
31717;BME280;18301;51.076;17.046;2023-07-31T03:22:49;99821.19;;;18.10;81.68
31717;BME280;18301;51.076;17.046;2023-07-31T03:27:51;99836.00;;;18.16;81.53
31717;BME280;18301;51.076;17.046;2023-07-31T03:32:52;99834.16;;;18.08;81.41
31717;BME280;18301;51.076;17.046;2023-07-31T03:37:54;99840.31;;;18.10;81.13
31717;BME280;18301;51.076;17.046;2023-07-31T03:42:55;99835.16;;;18.15;81.04
31717;BME280;18301;51.076;17.046;2023-07-31T03:47:57;99830.75;;;18.06;79.49
31717;BME280;18301;51.076;17.046;2023-07-31T03:52:58;99835.56;;;17.96;79.05
31717;BME280;18301;51.076;17.046;2023-07-31T03:58:00;99836.19;;;18.06;79.72
31717;BME280;18301;51.076;17.046;2023-07-31T04:03:02;99831.59;;;18.07;79.79
31717;BME280;18301;51.076;17.046;2023-07-31T04:08:04;99821.00;;;18.12;79.51
31717;BME280;18301;51.076;17.046;2023-07-31T04:13:05;99820.50;;;18.08;79.85
31717;BME280;18301;51.076;17.046;2023-07-31T04:18:07;99826.66;;;18.10;79.93
31717;BME280;18301;51.076;17.046;2023-07-31T04:23:08;99823.03;;;18.18;79.75
31717;BME280;18301;51.076;17.046;2023-07-31T04:28:10;99831.72;;;18.22;79.63
31717;BME280;18301;51.076;17.046;2023-07-31T04:33:13;99835.41;;;18.37;79.10
31717;BME280;18301;51.076;17.046;2023-07-31T04:38:14;99825.06;;;18.55;78.18
31717;BME280;18301;51.076;17.046;2023-07-31T04:43:15;99825.69;;;18.66;78.07
31717;BME280;18301;51.076;17.046;2023-07-31T04:48:17;99824.28;;;18.78;77.08
31717;BME280;18301;51.076;17.046;2023-07-31T04:53:19;99822.53;;;18.85;77.00
31717;BME280;18301;51.076;17.046;2023-07-31T04:58:20;99820.59;;;18.94;76.90
31717;BME280;18301;51.076;17.046;2023-07-31T05:03:21;99823.38;;;19.08;76.89
31717;BME280;18301;51.076;17.046;2023-07-31T05:08:23;99823.44;;;19.23;75.61
31717;BME280;18301;51.076;17.046;2023-07-31T05:13:25;99817.53;;;19.35;75.77
31717;BME280;18301;51.076;17.046;2023-07-31T05:18:26;99821.72;;;19.45;75.19
31717;BME280;18301;51.076;17.046;2023-07-31T05:23:28;99827.91;;;19.62;74.85
31717;BME280;18301;51.076;17.046;2023-07-31T05:28:29;99834.22;;;19.63;73.82
31717;BME280;18301;51.076;17.046;2023-07-31T05:33:31;99834.94;;;19.65;72.89
31717;BME280;18301;51.076;17.046;2023-07-31T05:38:32;99834.13;;;19.56;72.39
31717;BME280;18301;51.076;17.046;2023-07-31T05:43:34;99832.22;;;19.57;73.29
31717;BME280;18301;51.076;17.046;2023-07-31T05:48:35;99840.44;;;19.57;74.78
31717;BME280;18301;51.076;17.046;2023-07-31T05:53:37;99828.34;;;19.74;74.20
31717;BME280;18301;51.076;17.046;2023-07-31T05:58:42;99830.03;;;19.75;72.38
31717;BME280;18301;51.076;17.046;2023-07-31T06:03:43;99830.03;;;19.90;73.50
31717;BME280;18301;51.076;17.046;2023-07-31T06:08:45;99829.94;;;19.83;70.65
31717;BME280;18301;51.076;17.046;2023-07-31T06:13:47;99829.84;;;19.91;72.85
31717;BME280;18301;51.076;17.046;2023-07-31T06:18:49;99830.03;;;19.90;73.42
31717;BME280;18301;51.076;17.046;2023-07-31T06:23:51;99827.09;;;19.91;74.18
31717;BME280;18301;51.076;17.046;2023-07-31T06:28:52;99834.47;;;19.91;73.73
31717;BME280;18301;51.076;17.046;2023-07-31T06:33:54;99831.06;;;20.04;74.51
31717;BME280;18301;51.076;17.046;2023-07-31T06:38:55;99825.34;;;19.98;72.91
31717;BME280;18301;51.076;17.046;2023-07-31T06:43:57;99831.81;;;19.97;73.36
31717;BME280;18301;51.076;17.046;2023-07-31T06:48:58;99830.13;;;19.96;73.73
31717;BME280;18301;51.076;17.046;2023-07-31T06:54:00;99834.38;;;19.84;74.99
31717;BME280;18301;51.076;17.046;2023-07-31T06:59:01;99833.56;;;19.98;73.60
31717;BME280;18301;51.076;17.046;2023-07-31T07:04:03;99830.06;;;20.05;73.65
31717;BME280;18301;51.076;17.046;2023-07-31T07:09:04;99823.31;;;20.22;73.40
31717;BME280;18301;51.076;17.046;2023-07-31T07:14:06;99825.75;;;20.46;72.47
31717;BME280;18301;51.076;17.046;2023-07-31T07:19:08;99809.25;;;20.25;73.82
31717;BME280;18301;51.076;17.046;2023-07-31T07:24:09;99814.63;;;20.48;72.88
31717;BME280;18301;51.076;17.046;2023-07-31T07:29:11;99808.81;;;20.73;72.33
31717;BME280;18301;51.076;17.046;2023-07-31T07:34:12;99810.06;;;20.70;73.43
31717;BME280;18301;51.076;17.046;2023-07-31T07:39:14;99793.34;;;20.86;73.51
31717;BME280;18301;51.076;17.046;2023-07-31T07:44:15;99791.94;;;20.90;71.38
31717;BME280;18301;51.076;17.046;2023-07-31T07:49:17;99792.56;;;20.92;71.07
31717;BME280;18301;51.076;17.046;2023-07-31T07:54:18;99797.94;;;21.22;69.92
31717;BME280;18301;51.076;17.046;2023-07-31T07:59:21;99808.50;;;21.68;66.70
31717;BME280;18301;51.076;17.046;2023-07-31T08:04:23;99799.50;;;21.53;66.40
31717;BME280;18301;51.076;17.046;2023-07-31T08:09:24;99798.56;;;22.02;66.91
31717;BME280;18301;51.076;17.046;2023-07-31T08:14:26;99795.09;;;22.21;63.69
31717;BME280;18301;51.076;17.046;2023-07-31T08:19:27;99792.66;;;22.40;61.83
31717;BME280;18301;51.076;17.046;2023-07-31T08:24:29;99790.03;;;22.80;61.29
31717;BME280;18301;51.076;17.046;2023-07-31T08:29:31;99794.16;;;23.04;64.33
31717;BME280;18301;51.076;17.046;2023-07-31T08:34:32;99799.03;;;23.35;58.27
31717;BME280;18301;51.076;17.046;2023-07-31T08:39:34;99798.19;;;23.41;62.16
31717;BME280;18301;51.076;17.046;2023-07-31T08:44:36;99797.09;;;23.09;62.15
31717;BME280;18301;51.076;17.046;2023-07-31T08:49:39;99790.28;;;22.91;61.86
31717;BME280;18301;51.076;17.046;2023-07-31T08:54:41;99800.91;;;22.46;61.22
31717;BME280;18301;51.076;17.046;2023-07-31T08:59:43;99798.41;;;22.45;60.61
31717;BME280;18301;51.076;17.046;2023-07-31T09:04:45;99804.66;;;22.32;61.03
31717;BME280;18301;51.076;17.046;2023-07-31T09:09:47;99817.41;;;22.05;62.60
31717;BME280;18301;51.076;17.046;2023-07-31T09:14:48;99801.47;;;21.94;62.03
31717;BME280;18301;51.076;17.046;2023-07-31T09:19:50;99792.97;;;21.89;61.52
31717;BME280;18301;51.076;17.046;2023-07-31T09:24:51;99804.66;;;22.32;60.11
31717;BME280;18301;51.076;17.046;2023-07-31T09:29:59;99814.75;;;22.18;57.13
31717;BME280;18301;51.076;17.046;2023-07-31T09:35:01;99814.47;;;21.78;59.04
31717;BME280;18301;51.076;17.046;2023-07-31T09:40:02;99823.53;;;21.51;59.99
31717;BME280;18301;51.076;17.046;2023-07-31T09:45:08;99824.81;;;21.33;59.57
31717;BME280;18301;51.076;17.046;2023-07-31T09:50:19;99812.56;;;21.51;61.65
31717;BME280;18301;51.076;17.046;2023-07-31T09:55:20;99818.66;;;21.74;60.42
31717;BME280;18301;51.076;17.046;2023-07-31T10:00:22;99822.84;;;21.70;61.80
31717;BME280;18301;51.076;17.046;2023-07-31T10:05:31;99813.31;;;21.66;62.18
31717;BME280;18301;51.076;17.046;2023-07-31T10:10:41;99805.53;;;21.70;62.61
31717;BME280;18301;51.076;17.046;2023-07-31T10:15:44;99795.38;;;21.70;63.30
31717;BME280;18301;51.076;17.046;2023-07-31T10:20:47;99783.19;;;21.79;63.58
31717;BME280;18301;51.076;17.046;2023-07-31T10:25:49;99790.25;;;22.17;61.09
31717;BME280;18301;51.076;17.046;2023-07-31T10:30:51;99803.66;;;22.40;60.69
31717;BME280;18301;51.076;17.046;2023-07-31T10:36:12;99788.03;;;22.47;61.17
31717;BME280;18301;51.076;17.046;2023-07-31T10:41:14;99783.22;;;22.62;60.38
31717;BME280;18301;51.076;17.046;2023-07-31T10:46:15;99781.09;;;22.64;58.69
31717;BME280;18301;51.076;17.046;2023-07-31T10:51:20;99775.56;;;22.51;59.61
31717;BME280;18301;51.076;17.046;2023-07-31T10:56:25;99781.91;;;22.45;60.46
31717;BME280;18301;51.076;17.046;2023-07-31T11:01:50;99776.84;;;22.48;59.73
31717;BME280;18301;51.076;17.046;2023-07-31T11:06:59;99772.06;;;22.22;61.96
31717;BME280;18301;51.076;17.046;2023-07-31T11:12:01;99763.66;;;22.37;60.31
31717;BME280;18301;51.076;17.046;2023-07-31T11:17:06;99756.66;;;22.96;59.05
31717;BME280;18301;51.076;17.046;2023-07-31T11:22:08;99749.47;;;23.41;59.02
31717;BME280;18301;51.076;17.046;2023-07-31T11:27:10;99751.13;;;23.89;56.52
31717;BME280;18301;51.076;17.046;2023-07-31T11:32:16;99741.81;;;23.77;54.38
31717;BME280;18301;51.076;17.046;2023-07-31T11:37:18;99743.91;;;23.88;56.01
31717;BME280;18301;51.076;17.046;2023-07-31T11:42:20;99722.69;;;24.02;54.56
31717;BME280;18301;51.076;17.046;2023-07-31T11:47:21;99709.13;;;24.00;55.40
31717;BME280;18301;51.076;17.046;2023-07-31T11:52:23;99711.75;;;23.75;54.51
31717;BME280;18301;51.076;17.046;2023-07-31T11:57:26;99709.19;;;23.74;56.07
31717;BME280;18301;51.076;17.046;2023-07-31T12:02:28;99687.47;;;24.04;54.43
31717;BME280;18301;51.076;17.046;2023-07-31T12:07:43;99682.72;;;24.24;53.42
31717;BME280;18301;51.076;17.046;2023-07-31T12:12:55;99677.88;;;24.13;53.81
31717;BME280;18301;51.076;17.046;2023-07-31T12:17:57;99686.56;;;24.17;54.35
31717;BME280;18301;51.076;17.046;2023-07-31T12:22:58;99677.00;;;23.54;54.98
31717;BME280;18301;51.076;17.046;2023-07-31T12:28:07;99666.41;;;23.58;55.01
31717;BME280;18301;51.076;17.046;2023-07-31T12:33:14;99653.94;;;24.13;54.58
31717;BME280;18301;51.076;17.046;2023-07-31T12:38:16;99638.03;;;24.16;53.83
31717;BME280;18301;51.076;17.046;2023-07-31T12:43:17;99637.53;;;23.87;55.35
31717;BME280;18301;51.076;17.046;2023-07-31T12:48:19;99637.34;;;24.27;54.93
31717;BME280;18301;51.076;17.046;2023-07-31T12:53:20;99628.78;;;24.35;54.28
31717;BME280;18301;51.076;17.046;2023-07-31T12:58:22;99617.41;;;24.25;54.92
31717;BME280;18301;51.076;17.046;2023-07-31T13:03:24;99609.25;;;24.05;54.41
31717;BME280;18301;51.076;17.046;2023-07-31T13:08:26;99612.06;;;23.92;54.67
31717;BME280;18301;51.076;17.046;2023-07-31T13:13:27;99608.34;;;23.73;55.80
31717;BME280;18301;51.076;17.046;2023-07-31T13:18:30;99606.06;;;24.01;55.15
31717;BME280;18301;51.076;17.046;2023-07-31T13:23:32;99611.28;;;23.78;56.38
31717;BME280;18301;51.076;17.046;2023-07-31T13:28:33;99585.69;;;24.09;55.81
31717;BME280;18301;51.076;17.046;2023-07-31T13:33:35;99585.19;;;24.19;55.55
31717;BME280;18301;51.076;17.046;2023-07-31T13:38:40;99581.91;;;24.03;55.15
31717;BME280;18301;51.076;17.046;2023-07-31T13:43:41;99582.03;;;23.83;55.32
31717;BME280;18301;51.076;17.046;2023-07-31T13:48:43;99573.16;;;23.75;55.53
31717;BME280;18301;51.076;17.046;2023-07-31T13:53:44;99575.03;;;23.81;55.84
31717;BME280;18301;51.076;17.046;2023-07-31T13:58:46;99572.00;;;23.89;55.80
31717;BME280;18301;51.076;17.046;2023-07-31T14:03:47;99570.97;;;23.90;56.64
31717;BME280;18301;51.076;17.046;2023-07-31T14:08:49;99567.56;;;23.88;55.32
31717;BME280;18301;51.076;17.046;2023-07-31T14:13:50;99562.06;;;24.20;54.30
31717;BME280;18301;51.076;17.046;2023-07-31T14:18:52;99563.03;;;24.32;53.64
31717;BME280;18301;51.076;17.046;2023-07-31T14:23:55;99568.06;;;24.48;52.94
31717;BME280;18301;51.076;17.046;2023-07-31T14:28:56;99561.72;;;24.41;53.38
31717;BME280;18301;51.076;17.046;2023-07-31T14:33:58;99570.09;;;24.28;53.68
31717;BME280;18301;51.076;17.046;2023-07-31T14:38:59;99564.47;;;24.09;53.56
31717;BME280;18301;51.076;17.046;2023-07-31T14:44:01;99560.66;;;24.10;53.20
31717;BME280;18301;51.076;17.046;2023-07-31T14:49:02;99554.25;;;23.85;54.36
31717;BME280;18301;51.076;17.046;2023-07-31T14:54:04;99551.94;;;23.82;55.28
31717;BME280;18301;51.076;17.046;2023-07-31T14:59:05;99557.00;;;23.85;54.53
31717;BME280;18301;51.076;17.046;2023-07-31T15:04:09;99546.22;;;23.77;53.85
31717;BME280;18301;51.076;17.046;2023-07-31T15:09:10;99538.16;;;24.13;53.79
31717;BME280;18301;51.076;17.046;2023-07-31T15:14:12;99537.19;;;24.33;53.03
31717;BME280;18301;51.076;17.046;2023-07-31T15:19:17;99534.56;;;24.38;53.00
31717;BME280;18301;51.076;17.046;2023-07-31T15:24:19;99530.69;;;24.52;50.54
31717;BME280;18301;51.076;17.046;2023-07-31T15:29:21;99530.28;;;24.49;49.47
31717;BME280;18301;51.076;17.046;2023-07-31T15:34:23;99537.94;;;24.47;50.78
31717;BME280;18301;51.076;17.046;2023-07-31T15:39:25;99526.59;;;24.30;50.36
31717;BME280;18301;51.076;17.046;2023-07-31T15:44:27;99517.78;;;24.46;51.36
31717;BME280;18301;51.076;17.046;2023-07-31T15:49:29;99507.44;;;24.67;50.19
31717;BME280;18301;51.076;17.046;2023-07-31T15:54:30;99507.72;;;24.58;49.75
31717;BME280;18301;51.076;17.046;2023-07-31T15:59:32;99501.94;;;24.35;48.89
31717;BME280;18301;51.076;17.046;2023-07-31T16:04:33;99507.75;;;24.27;50.13
31717;BME280;18301;51.076;17.046;2023-07-31T16:09:35;99499.81;;;24.37;50.80
31717;BME280;18301;51.076;17.046;2023-07-31T16:14:36;99500.53;;;24.26;51.57
31717;BME280;18301;51.076;17.046;2023-07-31T16:19:38;99492.88;;;24.03;53.10
31717;BME280;18301;51.076;17.046;2023-07-31T16:24:40;99489.16;;;23.91;52.62
31717;BME280;18301;51.076;17.046;2023-07-31T16:29:41;99490.63;;;23.93;52.81
31717;BME280;18301;51.076;17.046;2023-07-31T16:34:43;99491.72;;;23.85;53.82
31717;BME280;18301;51.076;17.046;2023-07-31T16:39:45;99476.47;;;23.83;54.98
31717;BME280;18301;51.076;17.046;2023-07-31T16:44:49;99475.66;;;23.76;55.30
31717;BME280;18301;51.076;17.046;2023-07-31T16:49:51;99477.78;;;23.74;54.98
31717;BME280;18301;51.076;17.046;2023-07-31T16:54:52;99476.16;;;23.59;55.50
31717;BME280;18301;51.076;17.046;2023-07-31T16:59:54;99480.16;;;23.70;55.34
31717;BME280;18301;51.076;17.046;2023-07-31T17:04:55;99465.38;;;23.58;55.98
31717;BME280;18301;51.076;17.046;2023-07-31T17:09:57;99467.69;;;23.61;55.94
31717;BME280;18301;51.076;17.046;2023-07-31T17:14:59;99464.38;;;23.52;56.33
31717;BME280;18301;51.076;17.046;2023-07-31T17:20:00;99463.88;;;23.62;55.97
31717;BME280;18301;51.076;17.046;2023-07-31T17:25:02;99472.88;;;23.44;56.24
31717;BME280;18301;51.076;17.046;2023-07-31T17:30:06;99468.25;;;23.38;56.18
31717;BME280;18301;51.076;17.046;2023-07-31T17:35:08;99462.81;;;23.25;57.60
31717;BME280;18301;51.076;17.046;2023-07-31T17:40:09;99464.31;;;23.14;57.53
31717;BME280;18301;51.076;17.046;2023-07-31T17:45:11;99454.78;;;23.16;57.94
31717;BME280;18301;51.076;17.046;2023-07-31T17:50:13;99460.97;;;23.05;57.72
31717;BME280;18301;51.076;17.046;2023-07-31T17:55:14;99458.22;;;23.05;57.66
31717;BME280;18301;51.076;17.046;2023-07-31T18:00:16;99472.63;;;23.01;57.55
31717;BME280;18301;51.076;17.046;2023-07-31T18:05:17;99484.25;;;23.09;57.65
31717;BME280;18301;51.076;17.046;2023-07-31T18:10:19;99482.78;;;23.00;58.05
31717;BME280;18301;51.076;17.046;2023-07-31T18:15:21;99475.41;;;22.94;58.75
31717;BME280;18301;51.076;17.046;2023-07-31T18:20:22;99479.41;;;22.85;58.91
31717;BME280;18301;51.076;17.046;2023-07-31T18:25:24;99475.63;;;22.79;59.09
31717;BME280;18301;51.076;17.046;2023-07-31T18:30:26;99478.81;;;22.69;60.36
31717;BME280;18301;51.076;17.046;2023-07-31T18:35:27;99481.56;;;22.69;60.42
31717;BME280;18301;51.076;17.046;2023-07-31T18:40:29;99462.56;;;22.48;61.88
31717;BME280;18301;51.076;17.046;2023-07-31T18:45:32;99457.50;;;22.45;62.70
31717;BME280;18301;51.076;17.046;2023-07-31T18:50:33;99447.78;;;22.36;62.73
31717;BME280;18301;51.076;17.046;2023-07-31T18:55:35;99444.41;;;22.20;63.73
31717;BME280;18301;51.076;17.046;2023-07-31T19:00:36;99448.41;;;22.11;64.08
31717;BME280;18301;51.076;17.046;2023-07-31T19:05:39;99443.75;;;22.05;64.51
31717;BME280;18301;51.076;17.046;2023-07-31T19:10:40;99440.59;;;22.01;64.08
31717;BME280;18301;51.076;17.046;2023-07-31T19:15:42;99447.34;;;21.99;65.13
31717;BME280;18301;51.076;17.046;2023-07-31T19:20:43;99440.78;;;21.93;65.43
31717;BME280;18301;51.076;17.046;2023-07-31T19:25:45;99435.06;;;21.75;66.44
31717;BME280;18301;51.076;17.046;2023-07-31T19:30:46;99424.50;;;21.72;65.47
31717;BME280;18301;51.076;17.046;2023-07-31T19:35:58;99418.78;;;21.73;66.03
31717;BME280;18301;51.076;17.046;2023-07-31T19:41:00;99410.53;;;21.67;67.02
31717;BME280;18301;51.076;17.046;2023-07-31T19:46:02;99411.38;;;21.54;67.22
31717;BME280;18301;51.076;17.046;2023-07-31T19:51:04;99397.63;;;21.47;68.18
31717;BME280;18301;51.076;17.046;2023-07-31T19:56:06;99400.38;;;21.41;69.27
31717;BME280;18301;51.076;17.046;2023-07-31T20:01:07;99396.72;;;21.27;69.84
31717;BME280;18301;51.076;17.046;2023-07-31T20:06:09;99388.28;;;21.35;68.47
31717;BME280;18301;51.076;17.046;2023-07-31T20:11:10;99377.13;;;21.36;68.33
31717;BME280;18301;51.076;17.046;2023-07-31T20:16:12;99378.31;;;21.21;70.47
31717;BME280;18301;51.076;17.046;2023-07-31T20:21:13;99380.22;;;21.20;71.03
31717;BME280;18301;51.076;17.046;2023-07-31T20:26:15;99371.16;;;21.13;69.90
31717;BME280;18301;51.076;17.046;2023-07-31T20:31:16;99365.66;;;21.13;70.92
31717;BME280;18301;51.076;17.046;2023-07-31T20:36:18;99363.50;;;21.02;71.73
31717;BME280;18301;51.076;17.046;2023-07-31T20:41:19;99354.22;;;21.03;71.30
31717;BME280;18301;51.076;17.046;2023-07-31T20:46:21;99340.06;;;20.92;71.35
31717;BME280;18301;51.076;17.046;2023-07-31T20:51:23;99328.50;;;21.04;70.55
31717;BME280;18301;51.076;17.046;2023-07-31T20:56:24;99329.13;;;21.06;70.87
31717;BME280;18301;51.076;17.046;2023-07-31T21:01:26;99322.19;;;21.03;70.74
31717;BME280;18301;51.076;17.046;2023-07-31T21:06:27;99321.31;;;21.03;70.85
31717;BME280;18301;51.076;17.046;2023-07-31T21:11:30;99321.31;;;21.03;70.34
31717;BME280;18301;51.076;17.046;2023-07-31T21:16:32;99325.53;;;21.12;70.63
31717;BME280;18301;51.076;17.046;2023-07-31T21:21:33;99320.06;;;21.12;70.26
31717;BME280;18301;51.076;17.046;2023-07-31T21:26:35;99306.91;;;20.81;73.05
31717;BME280;18301;51.076;17.046;2023-07-31T21:31:36;99305.25;;;20.86;71.62
31717;BME280;18301;51.076;17.046;2023-07-31T21:36:38;99304.78;;;20.69;73.29
31717;BME280;18301;51.076;17.046;2023-07-31T21:41:41;99310.25;;;20.63;72.63
31717;BME280;18301;51.076;17.046;2023-07-31T21:46:43;99302.25;;;20.75;71.74
31717;BME280;18301;51.076;17.046;2023-07-31T21:51:44;99303.13;;;20.75;72.77
31717;BME280;18301;51.076;17.046;2023-07-31T21:56:46;99299.28;;;20.63;72.43
31717;BME280;18301;51.076;17.046;2023-07-31T22:01:47;99286.84;;;20.67;71.54
31717;BME280;18301;51.076;17.046;2023-07-31T22:06:49;99285.75;;;20.55;72.00
31717;BME280;18301;51.076;17.046;2023-07-31T22:11:50;99279.03;;;20.71;70.98
31717;BME280;18301;51.076;17.046;2023-07-31T22:16:53;99284.50;;;20.64;71.26
31717;BME280;18301;51.076;17.046;2023-07-31T22:21:55;99284.94;;;20.61;71.76
31717;BME280;18301;51.076;17.046;2023-07-31T22:26:58;99271.59;;;20.51;71.79
31717;BME280;18301;51.076;17.046;2023-07-31T22:31:59;99261.31;;;20.60;71.13
31717;BME280;18301;51.076;17.046;2023-07-31T22:37:01;99255.44;;;20.63;71.35
31717;BME280;18301;51.076;17.046;2023-07-31T22:42:02;99244.06;;;20.66;71.39
31717;BME280;18301;51.076;17.046;2023-07-31T22:47:04;99236.25;;;20.63;71.56
31717;BME280;18301;51.076;17.046;2023-07-31T22:52:06;99231.78;;;20.62;71.75
31717;BME280;18301;51.076;17.046;2023-07-31T22:57:07;99235.19;;;20.64;71.78
31717;BME280;18301;51.076;17.046;2023-07-31T23:02:09;99234.31;;;20.57;71.67
31717;BME280;18301;51.076;17.046;2023-07-31T23:07:11;99234.53;;;20.62;71.17
31717;BME280;18301;51.076;17.046;2023-07-31T23:12:12;99231.91;;;20.40;72.80
31717;BME280;18301;51.076;17.046;2023-07-31T23:17:14;99229.53;;;20.24;73.86
31717;BME280;18301;51.076;17.046;2023-07-31T23:22:15;99218.56;;;20.17;73.65
31717;BME280;18301;51.076;17.046;2023-07-31T23:27:17;99208.69;;;20.30;73.14
31717;BME280;18301;51.076;17.046;2023-07-31T23:32:18;99204.69;;;20.32;73.36
31717;BME280;18301;51.076;17.046;2023-07-31T23:37:20;99194.59;;;20.33;72.69
31717;BME280;18301;51.076;17.046;2023-07-31T23:42:22;99182.38;;;20.35;72.59
31717;BME280;18301;51.076;17.046;2023-07-31T23:47:25;99177.06;;;20.27;73.58
31717;BME280;18301;51.076;17.046;2023-07-31T23:52:27;99170.50;;;20.21;73.46
31717;BME280;18301;51.076;17.046;2023-07-31T23:57:28;99163.94;;;20.09;74.25
